KALO/ALO METAR and TAF weather

Enter ICAO airport designator
Station Type Date Time Source
KALO METAR 2018/07/20 13:54 UTC NOAA

KALO 201354Z 31011G18KT 10SM OVC010 18/18 A2975 RMK AO2 SLP071 T01780178


Station Type Date Time Source
KALO Decoded METAR 2018/07/20 13:54 UTC NOAA

WATERLOO MUNICIPAL AIRPORT, IA, United States (KALO) 42-33N 92-24W 264M
Jul 20, 2018 - 09:54 AM EDT / 2018.07.20 1354 UTC
Wind: from the NW (310 degrees) at 13 MPH (11 KT) gusting to 21 MPH (18 KT):0
Visibility: 10 mile(s):0
Sky conditions: overcast
Temperature: 64.0 F (17.8 C)
Dew Point: 64.0 F (17.8 C)
Relative Humidity: 100%
Pressure (altimeter): 29.75 in. Hg (1007 hPa)
ob: KALO 201354Z 31011G18KT 10SM OVC010 18/18 A2975 RMK AO2 SLP071 T01780178
cycle: 14

Station Type Date Time Source
KALO TAF 2018/07/20 12:22 UTC NOAA

TAF KALO 201120Z 2012/2112 30013G18KT P6SM VCSH OVC008
FM201600 32016G27KT P6SM BKN020
FM202200 32016G23KT P6SM VCTS BKN060CB
FM210000 32016KT P6SM SCT070
FM210500 31011KT P6SM BKN070


Example: see airport list